Terminal Aerodrome Forecast
Issued by NWS

Home | Current Version | Previous Version | Text Only | Print | Product List | Glossary On
Versions: 1 2 3 4 5 6 7 8 9 10 11 12 13 14 15 16 17 18 19 20 21 22 23 24 25
466
FTUS43 KDLH 240610 AAA
TAFHYR
TAF AMD
KHYR 240610Z 2406/2506 04003KT 5SM BR SCT005
      TEMPO 2406/2408 1/2SM FG VV002
     FM240800 VRB03KT 1SM BR BKN005
      TEMPO 2408/2411 1/2SM FG VV002
     FM241400 15005KT P6SM FEW010
     FM241700 17006KT P6SM SCT050=

USA.gov is the U.S. government's official web portal to all federal, state and local government web resources and services.